首页
METAR-TAF:

METAR-TAF

机场 :

Fillmore County Airport

普雷斯顿, 明尼蘇達州, 美国

纬度: 43-40-36N, 经度: 092-10-47W, 海拔: 389米

当前天气观测

该预报发布于12分钟前的14:56 UTC
风速4节,风向北转西北
温度 18°C
湿度 77%
气压 1012 hPa
能見度: 16.1公里
多云层高于6500英尺

METAR: KFKA 221456Z AUTO 33004KT 10SM BKN065 18/14 A2989 RMK AO2 T01800144

时间: 10:08 (15:08 UTC)


TAF: 丢失

超过4000个机场的气象观测和天气预报(METAR&TAF报告)。

可查询的气象台以黄色和红色小点在地图上表示。

将鼠标移到小点上方,可查看气象台名称。

然后点击查看天气观测和预报。

如需切换地图:点击带黑十字的绿色按钮放大地图;点击带横线的绿色按钮缩小地图;或者点击绿色箭头查看邻近地区的地图。


METAR-TAF: